Time;durP1;ratioP1;P1;durP2;ratioP2;P2;SDS_P1;SDS_P2;PMS_P1;PMS_P2;Temp;Humidity;BMP_temperature;BMP_pressure;BME280_temperature;BME280_humidity;BME280_pressure;Samples;Min_cycle;Max_cycle;Signal;HPM_P1;HPM_P2
2023/08/19 00:02:17;;;;;;;29.65;18.63;;;;;;;;;;4989767;28;20022;-70
2023/08/19 00:04:42;;;;;;;31.85;19.13;;;;;;;;;;4972149;28;20566;-69
2023/08/19 00:07:07;;;;;;;26.92;19.10;;;;;;;;;;4990219;28;20022;-69
2023/08/19 00:09:38;;;;;;;24.50;16.88;;;;;;;;;;4990191;28;20620;-69
2023/08/19 00:12:04;;;;;;;29.15;18.80;;;;;;;;;;4985397;28;20041;-70
2023/08/19 00:14:29;;;;;;;31.55;19.52;;;;;;;;;;4983415;28;20101;-69
2023/08/19 00:16:54;;;;;;;28.05;18.02;;;;;;;;;;4989533;28;20101;-70
2023/08/19 00:19:20;;;;;;;25.35;17.75;;;;;;;;;;4990584;28;20050;-70
2023/08/19 00:21:45;;;;;;;25.95;18.10;;;;;;;;;;4990274;28;20015;-69
2023/08/19 00:24:10;;;;;;;32.67;18.27;;;;;;;;;;4989998;28;20049;-72
2023/08/19 00:26:35;;;;;;;29.38;18.75;;;;;;;;;;4989520;28;20066;-70
2023/08/19 00:29:01;;;;;;;33.00;19.30;;;;;;;;;;4989384;28;20080;-71
2023/08/19 00:31:27;;;;;;;31.13;18.23;;;;;;;;;;4988566;28;20023;-69
2023/08/19 00:33:52;;;;;;;30.08;18.38;;;;;;;;;;4989483;28;20026;-70
2023/08/19 00:36:17;;;;;;;26.98;19.30;;;;;;;;;;4990114;28;20073;-67
2023/08/19 00:38:44;;;;;;;28.25;19.33;;;;;;;;;;4991883;28;20376;-67
2023/08/19 00:41:09;;;;;;;32.95;19.52;;;;;;;;;;4989858;28;20101;-71
2023/08/19 00:43:36;;;;;;;30.88;20.27;;;;;;;;;;4989889;28;20164;-70
2023/08/19 00:46:01;;;;;;;30.55;20.67;;;;;;;;;;4989623;28;20429;-71
2023/08/19 00:48:27;;;;;;;27.63;19.48;;;;;;;;;;4990044;28;20113;-67
2023/08/19 00:50:53;;;;;;;31.42;19.95;;;;;;;;;;4972279;28;20019;-69
2023/08/19 00:53:18;;;;;;;28.73;18.50;;;;;;;;;;4986107;28;20381;-72
2023/08/19 00:55:44;;;;;;;31.35;18.35;;;;;;;;;;4997700;28;20010;-74
2023/08/19 00:58:09;;;;;;;27.45;19.23;;;;;;;;;;4995698;28;20040;-72
2023/08/19 01:00:35;;;;;;;27.45;19.00;;;;;;;;;;4984916;28;20511;-72
2023/08/19 01:03:00;;;;;;;30.02;19.40;;;;;;;;;;4989305;28;20026;-72
2023/08/19 01:05:32;;;;;;;28.92;19.20;;;;;;;;;;4989601;28;20031;-71
2023/08/19 01:08:00;;;;;;;28.08;18.83;;;;;;;;;;4971740;28;20102;-73
2023/08/19 01:10:35;;;;;;;36.30;19.60;;;;;;;;;;4987792;28;20014;-72
2023/08/19 01:13:00;;;;;;;27.92;18.55;;;;;;;;;;4988027;28;20100;-72
2023/08/19 01:15:27;;;;;;;29.23;16.85;;;;;;;;;;4988563;28;20500;-72
2023/08/19 01:17:53;;;;;;;27.77;17.55;;;;;;;;;;4991414;28;20022;-72
2023/08/19 01:20:19;;;;;;;30.73;18.42;;;;;;;;;;4992270;28;20018;-71
2023/08/19 01:23:03;;;;;;;25.35;18.60;;;;;;;;;;4993384;28;20878;-70
2023/08/19 01:25:29;;;;;;;24.52;17.50;;;;;;;;;;4993165;28;20081;-71
2023/08/19 01:27:54;;;;;;;31.42;18.40;;;;;;;;;;4993413;28;20099;-72
2023/08/19 01:30:19;;;;;;;24.80;17.75;;;;;;;;;;4992854;28;20015;-75
2023/08/19 01:32:45;;;;;;;27.40;17.40;;;;;;;;;;4993086;28;20023;-71
2023/08/19 01:35:12;;;;;;;25.65;16.65;;;;;;;;;;4992996;28;20019;-71
2023/08/19 01:37:41;;;;;;;29.88;17.98;;;;;;;;;;4994737;28;20030;-71
2023/08/19 01:40:10;;;;;;;28.95;16.77;;;;;;;;;;4978223;28;20564;-72
2023/08/19 01:42:36;;;;;;;32.95;17.08;;;;;;;;;;4975826;28;20118;-73
2023/08/19 01:45:03;;;;;;;25.35;17.40;;;;;;;;;;4992356;28;20109;-71
2023/08/19 01:47:28;;;;;;;27.38;18.13;;;;;;;;;;4992390;28;20026;-73
2023/08/19 01:49:53;;;;;;;24.60;15.63;;;;;;;;;;4992907;28;20371;-72
2023/08/19 01:52:19;;;;;;;24.13;16.73;;;;;;;;;;4992790;28;20014;-72
2023/08/19 01:54:44;;;;;;;28.08;17.33;;;;;;;;;;4994641;28;20037;-72
2023/08/19 01:57:09;;;;;;;24.33;17.02;;;;;;;;;;5001173;28;20018;-72
2023/08/19 01:59:35;;;;;;;26.02;17.65;;;;;;;;;;4990270;28;20527;-72
2023/08/19 02:02:00;;;;;;;32.85;17.80;;;;;;;;;;5030656;23;20049;-69
2023/08/19 02:04:25;;;;;;;28.30;16.75;;;;;;;;;;5029183;28;20398;-70
2023/08/19 02:06:50;;;;;;;24.27;15.93;;;;;;;;;;5030060;28;20470;-70
2023/08/19 02:09:16;;;;;;;26.60;16.30;;;;;;;;;;5030779;28;20017;-66
2023/08/19 02:11:41;;;;;;;26.17;15.20;;;;;;;;;;5030536;28;20018;-70
2023/08/19 02:14:06;;;;;;;24.52;15.90;;;;;;;;;;5030603;28;20063;-67
2023/08/19 02:16:32;;;;;;;19.88;14.70;;;;;;;;;;5030249;28;20384;-70
2023/08/19 02:18:57;;;;;;;24.55;15.27;;;;;;;;;;5030189;28;20156;-69
2023/08/19 02:21:22;;;;;;;21.40;15.20;;;;;;;;;;5030214;28;20172;-68
2023/08/19 02:23:48;;;;;;;24.38;13.90;;;;;;;;;;5030209;28;20056;-70
2023/08/19 02:26:13;;;;;;;19.23;13.38;;;;;;;;;;5030157;28;20109;-70
2023/08/19 02:28:38;;;;;;;20.90;13.73;;;;;;;;;;5030089;28;20025;-67
2023/08/19 02:31:03;;;;;;;22.88;12.95;;;;;;;;;;5029827;28;20013;-70
2023/08/19 02:33:29;;;;;;;23.85;12.70;;;;;;;;;;5030420;28;20020;-70
2023/08/19 02:35:54;;;;;;;19.10;12.77;;;;;;;;;;5029568;28;20013;-71
2023/08/19 02:38:19;;;;;;;24.20;12.70;;;;;;;;;;5037236;28;20634;-72
2023/08/19 02:40:48;;;;;;;20.20;12.88;;;;;;;;;;5034553;28;20013;-68
2023/08/19 02:43:13;;;;;;;20.23;13.20;;;;;;;;;;5029934;28;20067;-69
2023/08/19 02:45:40;;;;;;;22.38;13.13;;;;;;;;;;5029785;28;20499;-70
2023/08/19 02:48:05;;;;;;;27.75;14.60;;;;;;;;;;5029456;28;20032;-68
2023/08/19 02:50:30;;;;;;;22.15;12.88;;;;;;;;;;5029717;28;20009;-69
2023/08/19 02:52:56;;;;;;;24.17;12.73;;;;;;;;;;5029398;28;20020;-67
2023/08/19 02:55:21;;;;;;;19.83;12.65;;;;;;;;;;5017185;28;20035;-69
2023/08/19 02:57:46;;;;;;;19.15;12.75;;;;;;;;;;5034635;28;20517;-69
2023/08/19 03:00:11;;;;;;;22.02;12.60;;;;;;;;;;5034025;28;20373;-70
2023/08/19 03:02:37;;;;;;;18.95;12.57;;;;;;;;;;5032088;28;20518;-68
2023/08/19 03:05:04;;;;;;;19.17;12.98;;;;;;;;;;5027510;28;20010;-68
2023/08/19 03:07:29;;;;;;;18.70;11.70;;;;;;;;;;5028973;28;20106;-70
2023/08/19 03:09:54;;;;;;;15.70;11.50;;;;;;;;;;5029193;28;20072;-68
2023/08/19 03:12:20;;;;;;;21.08;12.80;;;;;;;;;;5028749;28;20017;-70
2023/08/19 03:14:45;;;;;;;16.58;12.25;;;;;;;;;;5028419;28;20029;-67
2023/08/19 03:17:10;;;;;;;18.83;12.70;;;;;;;;;;5028878;28;20024;-71
2023/08/19 03:19:35;;;;;;;18.42;11.80;;;;;;;;;;5010757;28;20013;-70
2023/08/19 03:22:00;;;;;;;21.23;12.68;;;;;;;;;;5028678;28;20075;-71
2023/08/19 03:24:27;;;;;;;21.50;12.63;;;;;;;;;;5028606;28;20092;-70
2023/08/19 03:26:52;;;;;;;21.85;12.07;;;;;;;;;;5029174;28;20029;-70
2023/08/19 03:29:17;;;;;;;18.25;12.02;;;;;;;;;;5028728;28;20013;-71
2023/08/19 03:31:42;;;;;;;16.92;12.43;;;;;;;;;;5028267;28;20116;-70
2023/08/19 03:34:08;;;;;;;22.38;12.73;;;;;;;;;;5028341;28;20027;-69
2023/08/19 03:36:33;;;;;;;25.85;13.07;;;;;;;;;;5028568;28;20035;-70
2023/08/19 03:38:58;;;;;;;22.25;12.40;;;;;;;;;;5041337;28;20013;-69
2023/08/19 03:41:23;;;;;;;18.40;12.67;;;;;;;;;;5010874;28;20420;-69
2023/08/19 03:43:49;;;;;;;18.98;12.63;;;;;;;;;;5028373;28;20262;-69
2023/08/19 03:46:14;;;;;;;25.77;15.32;;;;;;;;;;5028426;28;20501;-69
2023/08/19 03:48:39;;;;;;;20.10;12.98;;;;;;;;;;5028281;28;20021;-70
2023/08/19 03:51:04;;;;;;;18.60;12.98;;;;;;;;;;5009827;28;20338;-70
2023/08/19 03:53:30;;;;;;;18.40;12.63;;;;;;;;;;5026123;28;20395;-68
2023/08/19 03:55:55;;;;;;;21.95;12.35;;;;;;;;;;5024650;28;20088;-69
2023/08/19 03:58:20;;;;;;;21.98;13.20;;;;;;;;;;5027591;28;20018;-71
2023/08/19 04:00:47;;;;;;;24.30;13.77;;;;;;;;;;5030153;28;20029;-68
2023/08/19 04:03:12;;;;;;;24.92;13.40;;;;;;;;;;5032349;28;20036;-67
2023/08/19 04:05:37;;;;;;;18.35;12.40;;;;;;;;;;5027949;28;20029;-70
2023/08/19 04:08:03;;;;;;;20.75;13.23;;;;;;;;;;5028532;28;20057;-71
2023/08/19 04:10:28;;;;;;;22.55;13.40;;;;;;;;;;5028377;28;20104;-70
2023/08/19 04:12:53;;;;;;;18.00;13.43;;;;;;;;;;5028062;28;20025;-69
2023/08/19 04:15:19;;;;;;;17.63;13.13;;;;;;;;;;5028040;28;20044;-68
2023/08/19 04:17:44;;;;;;;22.30;13.48;;;;;;;;;;5027674;28;20029;-68
2023/08/19 04:20:10;;;;;;;22.10;13.73;;;;;;;;;;5027713;28;20017;-67
2023/08/19 04:22:36;;;;;;;16.80;11.85;;;;;;;;;;5028111;28;20017;-70
2023/08/19 04:25:02;;;;;;;21.25;13.60;;;;;;;;;;5027805;28;20113;-66
2023/08/19 04:27:28;;;;;;;21.48;12.75;;;;;;;;;;5027543;28;20101;-68
2023/08/19 04:29:53;;;;;;;24.70;15.07;;;;;;;;;;5027355;28;20035;-69
2023/08/19 04:32:18;;;;;;;21.60;13.35;;;;;;;;;;5009584;28;20013;-69
2023/08/19 04:34:44;;;;;;;23.40;12.80;;;;;;;;;;5027626;28;20018;-68
2023/08/19 04:37:09;;;;;;;17.00;12.20;;;;;;;;;;5028128;28;20125;-70
2023/08/19 04:39:35;;;;;;;20.02;12.63;;;;;;;;;;5027927;28;20378;-70
2023/08/19 04:42:00;;;;;;;18.75;12.38;;;;;;;;;;5027883;28;20528;-66
2023/08/19 04:44:25;;;;;;;18.17;12.80;;;;;;;;;;5027708;28;20013;-69
2023/08/19 04:46:50;;;;;;;20.10;13.35;;;;;;;;;;5028031;28;20056;-66
2023/08/19 04:49:16;;;;;;;15.43;11.37;;;;;;;;;;5028025;28;20036;-68
2023/08/19 04:51:41;;;;;;;18.45;11.52;;;;;;;;;;5028902;28;20245;-69
2023/08/19 04:54:07;;;;;;;19.15;12.25;;;;;;;;;;5026856;28;20412;-69
2023/08/19 04:56:32;;;;;;;17.00;11.52;;;;;;;;;;5036359;28;20075;-68
2023/08/19 04:59:00;;;;;;;18.90;11.27;;;;;;;;;;5028529;28;20013;-69
2023/08/19 05:01:26;;;;;;;18.00;11.32;;;;;;;;;;5044952;28;20024;-69
2023/08/19 05:03:51;;;;;;;15.45;10.80;;;;;;;;;;5032654;28;20101;-70
2023/08/19 05:06:16;;;;;;;16.05;11.07;;;;;;;;;;5032010;28;20480;-70
2023/08/19 05:08:41;;;;;;;16.77;11.13;;;;;;;;;;5031575;28;20451;-70
2023/08/19 05:11:07;;;;;;;18.33;11.35;;;;;;;;;;5031898;28;20022;-69
2023/08/19 05:13:32;;;;;;;15.33;11.47;;;;;;;;;;5031356;28;20097;-65
2023/08/19 05:16:01;;;;;;;15.38;10.55;;;;;;;;;;5031478;28;20728;-70
2023/08/19 05:18:26;;;;;;;;;;;;;;;;;;5031501;28;20091;-70
2023/08/19 05:20:51;;;;;;;19.58;11.07;;;;;;;;;;5031533;28;19901;-70
2023/08/19 05:23:16;;;;;;;15.73;11.35;;;;;;;;;;5013453;28;20467;-70
2023/08/19 05:25:42;;;;;;;15.90;11.05;;;;;;;;;;5031249;28;20408;-70
2023/08/19 05:28:07;;;;;;;16.58;11.60;;;;;;;;;;5031622;28;20025;-70
2023/08/19 05:30:32;;;;;;;20.13;11.25;;;;;;;;;;5030394;28;20020;-70
2023/08/19 05:32:58;;;;;;;17.75;11.30;;;;;;;;;;5030201;28;20018;-69
2023/08/19 05:35:23;;;;;;;14.93;10.50;;;;;;;;;;5030669;28;20021;-69
2023/08/19 05:37:48;;;;;;;17.73;11.43;;;;;;;;;;5033790;28;20024;-67
2023/08/19 05:40:13;;;;;;;16.63;10.63;;;;;;;;;;5040632;28;20037;-70
2023/08/19 05:42:39;;;;;;;15.38;10.63;;;;;;;;;;5030542;28;20096;-66
2023/08/19 05:45:04;;;;;;;27.63;11.32;;;;;;;;;;5030636;28;20607;-67
2023/08/19 05:47:29;;;;;;;17.10;10.80;;;;;;;;;;5013052;28;20025;-70
2023/08/19 05:49:54;;;;;;;21.50;10.52;;;;;;;;;;5013085;28;20010;-68
2023/08/19 05:52:20;;;;;;;15.18;11.15;;;;;;;;;;5030402;28;20017;-69
2023/08/19 05:54:45;;;;;;;21.55;12.15;;;;;;;;;;5022890;28;20100;-68
2023/08/19 05:57:10;;;;;;;19.70;10.70;;;;;;;;;;5039266;28;20643;-66
2023/08/19 05:59:35;;;;;;;22.95;10.75;;;;;;;;;;5035937;28;20091;-68
2023/08/19 06:02:01;;;;;;;18.60;10.50;;;;;;;;;;5030492;28;20024;-72
2023/08/19 06:04:26;;;;;;;22.02;10.65;;;;;;;;;;5028378;28;20805;-68
2023/08/19 06:06:51;;;;;;;16.92;10.77;;;;;;;;;;5029832;28;20096;-68
2023/08/19 06:09:17;;;;;;;16.08;10.63;;;;;;;;;;5029475;28;20014;-64
2023/08/19 06:11:49;;;;;;;17.63;11.50;;;;;;;;;;5029372;28;20005;-67
2023/08/19 06:14:14;;;;;;;20.48;11.20;;;;;;;;;;5030008;28;20055;-70
2023/08/19 06:16:40;;;;;;;14.10;10.50;;;;;;;;;;5029230;28;20037;-69
2023/08/19 06:19:05;;;;;;;21.70;11.00;;;;;;;;;;5029833;28;20394;-67
2023/08/19 06:21:30;;;;;;;16.20;10.52;;;;;;;;;;5029900;28;20098;-72
2023/08/19 06:23:56;;;;;;;18.75;10.90;;;;;;;;;;5028598;28;20067;-68
2023/08/19 06:26:21;;;;;;;18.58;12.15;;;;;;;;;;5028893;28;20018;-69
2023/08/19 06:28:46;;;;;;;15.88;10.68;;;;;;;;;;5028807;28;20074;-69
2023/08/19 06:31:12;;;;;;;20.35;11.50;;;;;;;;;;5028175;28;20051;-69
2023/08/19 06:33:37;;;;;;;16.08;10.93;;;;;;;;;;5018393;28;20083;-66
2023/08/19 06:36:02;;;;;;;19.38;11.35;;;;;;;;;;5012211;28;20101;-75
2023/08/19 06:38:29;;;;;;;21.02;10.65;;;;;;;;;;5030131;28;20014;-69
2023/08/19 06:41:10;;;;;;;16.00;11.15;;;;;;;;;;5026502;28;20029;-67
2023/08/19 06:43:38;;;;;;;18.25;11.00;;;;;;;;;;5023857;28;20455;-69
2023/08/19 06:46:04;;;;;;;16.48;11.32;;;;;;;;;;5008559;28;20021;-69
2023/08/19 06:48:30;;;;;;;19.42;11.10;;;;;;;;;;5024748;28;20018;-65
2023/08/19 06:50:56;;;;;;;17.50;10.93;;;;;;;;;;5026493;28;20013;-70
2023/08/19 06:53:22;;;;;;;16.63;10.63;;;;;;;;;;5028536;28;20079;-65
2023/08/19 06:55:58;;;;;;;17.55;10.38;;;;;;;;;;5032994;28;20016;-70
2023/08/19 06:58:26;;;;;;;20.23;9.75;;;;;;;;;;5031834;28;20112;-68
2023/08/19 07:00:53;;;;;;;15.95;10.45;;;;;;;;;;5031793;28;20123;-67
2023/08/19 07:03:19;;;;;;;19.55;10.35;;;;;;;;;;5034902;28;20386;-72
2023/08/19 07:05:47;;;;;;;17.48;9.57;;;;;;;;;;5024917;28;20327;-69
2023/08/19 07:08:13;;;;;;;14.48;9.98;;;;;;;;;;5029006;28;20018;-68
2023/08/19 07:10:40;;;;;;;15.85;10.20;;;;;;;;;;5028991;28;20061;-69
2023/08/19 07:13:06;;;;;;;15.63;10.25;;;;;;;;;;5011015;28;20124;-69
2023/08/19 07:15:31;;;;;;;17.25;10.10;;;;;;;;;;5027776;28;20104;-67
2023/08/19 07:17:58;;;;;;;15.15;9.43;;;;;;;;;;5021466;28;20471;-69
2023/08/19 07:20:23;;;;;;;14.43;9.05;;;;;;;;;;5028671;28;20082;-71
2023/08/19 07:22:49;;;;;;;13.20;9.88;;;;;;;;;;5028975;28;20432;-69
2023/08/19 07:25:15;;;;;;;19.50;9.88;;;;;;;;;;5027416;28;20025;-68
2023/08/19 07:27:44;;;;;;;15.15;9.55;;;;;;;;;;5026179;28;20456;-66
2023/08/19 07:30:09;;;;;;;11.20;8.60;;;;;;;;;;5028621;28;20100;-70
2023/08/19 07:32:35;;;;;;;14.90;9.23;;;;;;;;;;5027914;28;20017;-68
2023/08/19 07:35:01;;;;;;;15.02;9.30;;;;;;;;;;5028211;28;20044;-66
2023/08/19 07:37:26;;;;;;;13.65;8.68;;;;;;;;;;5028168;28;20045;-70
2023/08/19 07:39:53;;;;;;;15.40;9.13;;;;;;;;;;5024274;28;20436;-69
2023/08/19 07:42:18;;;;;;;15.32;9.23;;;;;;;;;;5026775;28;20108;-71
2023/08/19 07:44:43;;;;;;;11.43;8.68;;;;;;;;;;5022830;28;20184;-68
2023/08/19 07:47:08;;;;;;;18.30;8.75;;;;;;;;;;5024936;28;20316;-69
2023/08/19 07:49:34;;;;;;;14.30;8.77;;;;;;;;;;5027467;28;20083;-67
2023/08/19 07:51:59;;;;;;;13.02;8.93;;;;;;;;;;5025305;28;20543;-71
2023/08/19 07:54:24;;;;;;;14.25;9.23;;;;;;;;;;5026356;28;20407;-69
2023/08/19 07:56:53;;;;;;;13.52;9.02;;;;;;;;;;5025543;28;20013;-68
2023/08/19 07:59:19;;;;;;;13.35;9.45;;;;;;;;;;5014826;28;20066;-67
2023/08/19 08:01:44;;;;;;;14.05;8.63;;;;;;;;;;5068825;22;20045;-72
2023/08/19 08:04:09;;;;;;;11.93;8.57;;;;;;;;;;5046699;28;20021;-71
2023/08/19 08:06:35;;;;;;;12.77;8.73;;;;;;;;;;5044755;28;20486;-70
2023/08/19 08:09:00;;;;;;;13.25;8.07;;;;;;;;;;5042221;28;20278;-67
2023/08/19 08:11:25;;;;;;;17.17;7.97;;;;;;;;;;5048272;28;20013;-74
2023/08/19 08:13:50;;;;;;;16.35;8.65;;;;;;;;;;5039779;28;20017;-69
2023/08/19 08:16:16;;;;;;;12.45;8.10;;;;;;;;;;5046606;28;20001;-72
2023/08/19 08:18:41;;;;;;;12.70;7.63;;;;;;;;;;5048027;28;20501;-70
2023/08/19 08:21:06;;;;;;;10.73;7.40;;;;;;;;;;5045919;28;20289;-71
2023/08/19 08:23:32;;;;;;;10.90;7.93;;;;;;;;;;5048494;28;20262;-71
2023/08/19 08:25:57;;;;;;;11.00;7.70;;;;;;;;;;5050999;28;20018;-71
2023/08/19 08:28:23;;;;;;;11.88;6.75;;;;;;;;;;5031704;28;20446;-72
2023/08/19 08:30:48;;;;;;;13.82;7.07;;;;;;;;;;5053364;28;20092;-72
2023/08/19 08:33:13;;;;;;;10.15;6.80;;;;;;;;;;5052512;28;20013;-71
2023/08/19 08:35:39;;;;;;;12.95;6.63;;;;;;;;;;5052915;28;20025;-70
2023/08/19 08:38:04;;;;;;;10.00;6.90;;;;;;;;;;5053055;28;20021;-73
2023/08/19 08:40:32;;;;;;;16.35;7.00;;;;;;;;;;5052695;28;20012;-70
2023/08/19 08:42:58;;;;;;;;;;;;;;;;;;5052376;28;20025;-70
2023/08/19 08:45:26;;;;;;;11.27;6.35;;;;;;;;;;5048824;28;20367;-70
2023/08/19 08:47:51;;;;;;;9.03;6.23;;;;;;;;;;5047981;28;20005;-70
2023/08/19 08:50:17;;;;;;;10.85;6.28;;;;;;;;;;5052127;28;20028;-67
2023/08/19 08:52:42;;;;;;;14.32;6.45;;;;;;;;;;5052811;28;20025;-69
2023/08/19 08:55:09;;;;;;;11.75;6.10;;;;;;;;;;5049290;28;20435;-70
2023/08/19 08:57:34;;;;;;;8.48;5.65;;;;;;;;;;5043881;28;20483;-69
2023/08/19 08:59:59;;;;;;;12.52;6.10;;;;;;;;;;5050799;28;20032;-70
2023/08/19 09:02:26;;;;;;;10.30;6.50;;;;;;;;;;5049325;28;20024;-69
2023/08/19 09:04:51;;;;;;;9.98;6.13;;;;;;;;;;5050600;28;20020;-70
2023/08/19 09:07:30;;;;;;;8.90;6.05;;;;;;;;;;5052359;28;20013;-70
2023/08/19 09:09:57;;;;;;;15.15;7.40;;;;;;;;;;5052387;28;20497;-69
2023/08/19 09:12:23;;;;;;;7.85;5.30;;;;;;;;;;5034237;28;20583;-71
2023/08/19 09:14:53;;;;;;;9.77;5.75;;;;;;;;;;5050182;28;20101;-72
2023/08/19 09:17:18;;;;;;;11.98;5.93;;;;;;;;;;5051590;28;20036;-72
2023/08/19 09:19:43;;;;;;;10.98;5.93;;;;;;;;;;5052565;28;20063;-70
2023/08/19 09:22:29;;;;;;;9.13;5.72;;;;;;;;;;5052144;28;20071;-71
2023/08/19 09:24:54;;;;;;;11.40;5.30;;;;;;;;;;5051848;28;20274;-67
2023/08/19 09:27:27;;;;;;;7.85;5.07;;;;;;;;;;5046436;28;20502;-72
2023/08/19 09:29:52;;;;;;;8.05;5.13;;;;;;;;;;5025978;28;20067;-70
2023/08/19 09:32:31;;;;;;;6.32;4.43;;;;;;;;;;5044222;28;20017;-69
2023/08/19 09:35:00;;;;;;;12.88;5.53;;;;;;;;;;5043942;28;20398;-70
2023/08/19 09:37:26;;;;;;;9.18;5.75;;;;;;;;;;5049132;28;20021;-69
2023/08/19 09:39:51;;;;;;;7.60;5.22;;;;;;;;;;5050510;28;20340;-70
2023/08/19 09:42:16;;;;;;;10.87;5.37;;;;;;;;;;5050463;28;20017;-69
2023/08/19 09:44:43;;;;;;;8.18;5.30;;;;;;;;;;5043569;28;20266;-68
2023/08/19 09:47:08;;;;;;;11.95;6.30;;;;;;;;;;5049938;28;20544;-69
2023/08/19 09:49:35;;;;;;;8.13;5.35;;;;;;;;;;5043555;28;20021;-71
2023/08/19 09:52:00;;;;;;;14.95;5.63;;;;;;;;;;5046691;28;20020;-69
2023/08/19 09:54:25;;;;;;;7.35;4.35;;;;;;;;;;5048203;28;20017;-68
2023/08/19 09:56:55;;;;;;;10.13;4.53;;;;;;;;;;5050964;28;20060;-71
2023/08/19 09:59:21;;;;;;;11.68;5.35;;;;;;;;;;5047142;28;20336;-67
2023/08/19 10:01:47;;;;;;;9.98;5.05;;;;;;;;;;5049870;28;20032;-70
2023/08/19 10:04:12;;;;;;;9.13;5.18;;;;;;;;;;5029976;28;20025;-71
2023/08/19 10:06:39;;;;;;;9.32;4.82;;;;;;;;;;5050408;28;20023;-69
2023/08/19 10:09:06;;;;;;;10.48;4.80;;;;;;;;;;5051205;28;20021;-69
2023/08/19 10:11:33;;;;;;;7.93;5.53;;;;;;;;;;5050621;28;20013;-71
2023/08/19 10:14:02;;;;;;;9.65;4.85;;;;;;;;;;5051078;28;20056;-72
2023/08/19 10:16:29;;;;;;;8.30;5.10;;;;;;;;;;5038062;28;20482;-68
2023/08/19 10:18:56;;;;;;;6.95;4.55;;;;;;;;;;5051417;28;20048;-70
2023/08/19 10:21:23;;;;;;;9.68;4.30;;;;;;;;;;5046320;28;20351;-69
2023/08/19 10:23:48;;;;;;;13.45;4.95;;;;;;;;;;5050448;28;20017;-70
2023/08/19 10:26:17;;;;;;;11.05;4.65;;;;;;;;;;5050175;28;20611;-70
2023/08/19 10:29:00;;;;;;;9.07;4.80;;;;;;;;;;5040072;28;20183;-71
2023/08/19 10:31:26;;;;;;;11.68;4.35;;;;;;;;;;5050073;28;20032;-69
2023/08/19 10:33:53;;;;;;;8.25;4.40;;;;;;;;;;5047848;28;20055;-69
2023/08/19 10:36:19;;;;;;;8.35;3.97;;;;;;;;;;5049445;28;20421;-72
2023/08/19 10:38:48;;;;;;;11.85;4.60;;;;;;;;;;5050828;28;20091;-71
2023/08/19 10:41:18;;;;;;;7.78;4.97;;;;;;;;;;5050690;28;20477;-69
2023/08/19 10:43:47;;;;;;;6.55;4.03;;;;;;;;;;5050573;28;20020;-71
2023/08/19 10:46:15;;;;;;;9.65;4.45;;;;;;;;;;5032046;28;20028;-71
2023/08/19 10:48:40;;;;;;;;;;;;;;;;;;5051428;28;20155;-67
2023/08/19 10:51:06;;;;;;;6.38;4.53;;;;;;;;;;5048607;28;19987;-70
2023/08/19 10:53:31;;;;;;;6.80;4.10;;;;;;;;;;5049991;28;20480;-70
2023/08/19 10:55:56;;;;;;;8.27;4.70;;;;;;;;;;5048997;28;20005;-70
2023/08/19 10:58:22;;;;;;;8.20;4.47;;;;;;;;;;5051152;28;20250;-71
2023/08/19 11:00:48;;;;;;;10.90;4.88;;;;;;;;;;5048510;28;20269;-70
2023/08/19 11:03:14;;;;;;;8.98;5.07;;;;;;;;;;5049706;28;20033;-71
2023/08/19 11:05:49;;;;;;;8.65;4.93;;;;;;;;;;5049814;28;20451;-71
2023/08/19 11:08:15;;;;;;;10.13;4.88;;;;;;;;;;5050043;28;20032;-68
2023/08/19 11:10:43;;;;;;;10.20;5.00;;;;;;;;;;5048436;28;20104;-70
2023/08/19 11:13:08;;;;;;;;;;;;;;;;;;5049118;28;20100;-69
2023/08/19 11:15:34;;;;;;;9.80;5.00;;;;;;;;;;5044548;28;20003;-70
2023/08/19 11:17:59;;;;;;;7.82;4.53;;;;;;;;;;5042039;28;20108;-69
2023/08/19 11:20:27;;;;;;;8.00;4.15;;;;;;;;;;5045941;28;20070;-69
2023/08/19 11:22:52;;;;;;;;;;;;;;;;;;5049969;28;20115;-69
2023/08/19 11:25:18;;;;;;;6.57;4.45;;;;;;;;;;5049543;28;19905;-70
2023/08/19 11:27:43;;;;;;;8.23;4.63;;;;;;;;;;5038959;28;20051;-71
2023/08/19 11:30:09;;;;;;;6.65;3.90;;;;;;;;;;5048424;28;20039;-69
2023/08/19 11:32:35;;;;;;;7.93;4.38;;;;;;;;;;5035373;28;20013;-71
2023/08/19 11:35:01;;;;;;;7.18;4.55;;;;;;;;;;5030514;28;20009;-70
2023/08/19 11:37:29;;;;;;;6.97;4.13;;;;;;;;;;5049403;28;20037;-71
2023/08/19 11:39:55;;;;;;;6.53;4.13;;;;;;;;;;5046491;28;20109;-70
2023/08/19 11:42:20;;;;;;;6.28;4.05;;;;;;;;;;5030406;28;20534;-71
2023/08/19 11:44:45;;;;;;;7.60;4.15;;;;;;;;;;5045486;28;20025;-70
2023/08/19 11:47:11;;;;;;;9.63;4.13;;;;;;;;;;5044745;28;20055;-72
2023/08/19 11:49:37;;;;;;;9.57;4.13;;;;;;;;;;5047767;28;20101;-71
2023/08/19 11:52:02;;;;;;;7.97;4.10;;;;;;;;;;5048416;28;20092;-71
2023/08/19 11:54:27;;;;;;;6.90;4.13;;;;;;;;;;5048049;28;20017;-71
2023/08/19 11:56:54;;;;;;;7.72;3.72;;;;;;;;;;5045558;28;20341;-71
2023/08/19 11:59:27;;;;;;;6.00;3.47;;;;;;;;;;5049539;28;20107;-73
2023/08/19 12:01:53;;;;;;;7.60;3.83;;;;;;;;;;5048932;28;20579;-70
2023/08/19 12:04:18;;;;;;;6.10;3.70;;;;;;;;;;5049001;28;20017;-72
2023/08/19 12:06:44;;;;;;;9.93;4.13;;;;;;;;;;5050058;28;20756;-72
2023/08/19 12:09:09;;;;;;;8.05;4.07;;;;;;;;;;5050371;28;20731;-72
2023/08/19 12:11:37;;;;;;;11.48;3.88;;;;;;;;;;5049215;28;20433;-72
2023/08/19 12:14:03;;;;;;;9.02;4.60;;;;;;;;;;5049404;28;20028;-71
2023/08/19 12:16:29;;;;;;;7.30;4.10;;;;;;;;;;5049811;28;20012;-71
2023/08/19 12:18:54;;;;;;;8.13;4.10;;;;;;;;;;5049497;28;20019;-69
2023/08/19 12:21:19;;;;;;;7.57;4.10;;;;;;;;;;5049484;28;20020;-70
2023/08/19 12:23:45;;;;;;;14.20;3.85;;;;;;;;;;5049069;28;20017;-70
2023/08/19 12:26:10;;;;;;;9.43;4.25;;;;;;;;;;5049654;28;20024;-70
2023/08/19 12:28:35;;;;;;;6.72;4.18;;;;;;;;;;5049537;28;20121;-69
2023/08/19 12:31:03;;;;;;;8.98;3.85;;;;;;;;;;5049783;28;20028;-71
2023/08/19 12:33:28;;;;;;;;;;;;;;;;;;5049093;28;20017;-72
2023/08/19 12:35:54;;;;;;;10.25;3.78;;;;;;;;;;5049012;28;19904;-73
2023/08/19 12:38:20;;;;;;;7.97;3.67;;;;;;;;;;5049770;28;20027;-72
2023/08/19 12:40:45;;;;;;;9.82;3.95;;;;;;;;;;5049711;28;20086;-69
2023/08/19 12:43:12;;;;;;;7.40;3.33;;;;;;;;;;5048915;28;20457;-69
2023/08/19 12:45:37;;;;;;;7.68;3.60;;;;;;;;;;5049148;28;20051;-68
2023/08/19 12:48:03;;;;;;;8.07;3.65;;;;;;;;;;5047550;28;20024;-71
2023/08/19 12:50:28;;;;;;;5.10;2.97;;;;;;;;;;5041612;28;20021;-71
2023/08/19 12:52:53;;;;;;;5.75;3.22;;;;;;;;;;5049175;28;20009;-72
2023/08/19 12:55:22;;;;;;;7.70;3.77;;;;;;;;;;5049078;28;20063;-72
2023/08/19 12:57:47;;;;;;;6.35;3.40;;;;;;;;;;5049270;28;20337;-70
2023/08/19 13:00:13;;;;;;;7.40;3.10;;;;;;;;;;5049060;28;20119;-72
2023/08/19 13:02:39;;;;;;;8.38;3.30;;;;;;;;;;5048056;28;20033;-70
2023/08/19 13:05:05;;;;;;;7.47;3.50;;;;;;;;;;5030178;28;20044;-68
2023/08/19 13:07:31;;;;;;;7.53;3.20;;;;;;;;;;5048763;28;20078;-70
2023/08/19 13:09:59;;;;;;;5.22;2.92;;;;;;;;;;5048592;28;20084;-71
2023/08/19 13:12:24;;;;;;;;;;;;;;;;;;5049760;28;20013;-70
2023/08/19 13:14:49;;;;;;;7.80;3.07;;;;;;;;;;5035058;28;19907;-72
2023/08/19 13:17:15;;;;;;;7.57;3.20;;;;;;;;;;5052884;28;20005;-69
2023/08/19 13:19:40;;;;;;;6.55;3.00;;;;;;;;;;5052404;28;20246;-70
2023/08/19 13:22:05;;;;;;;7.28;3.15;;;;;;;;;;5052440;28;20013;-72
2023/08/19 13:24:30;;;;;;;7.97;2.90;;;;;;;;;;5052294;28;20017;-70
2023/08/19 13:26:56;;;;;;;7.95;3.78;;;;;;;;;;5051741;28;20311;-72
2023/08/19 13:29:22;;;;;;;7.65;2.92;;;;;;;;;;5044306;28;20028;-70
2023/08/19 13:31:47;;;;;;;4.35;2.50;;;;;;;;;;5050349;28;20099;-71
2023/08/19 13:34:12;;;;;;;8.00;2.90;;;;;;;;;;5051158;28;20021;-71
2023/08/19 13:36:38;;;;;;;4.65;2.63;;;;;;;;;;5052183;28;20265;-72
2023/08/19 13:39:03;;;;;;;8.93;2.75;;;;;;;;;;5052184;28;20435;-70
2023/08/19 13:41:29;;;;;;;7.07;2.53;;;;;;;;;;5051369;28;20021;-71
2023/08/19 13:43:54;;;;;;;8.68;2.90;;;;;;;;;;5051721;28;20028;-72
2023/08/19 13:46:20;;;;;;;8.87;3.27;;;;;;;;;;5052113;28;20096;-71
2023/08/19 13:48:45;;;;;;;8.82;2.67;;;;;;;;;;5052325;28;20349;-71
2023/08/19 13:51:10;;;;;;;7.87;2.33;;;;;;;;;;5051619;28;20016;-72
2023/08/19 13:53:35;;;;;;;23.67;2.92;;;;;;;;;;5051333;28;20341;-71
2023/08/19 13:56:01;;;;;;;7.97;2.63;;;;;;;;;;5052037;28;20035;-70
2023/08/19 13:58:26;;;;;;;8.30;3.10;;;;;;;;;;5055665;28;20352;-72
2023/08/19 14:00:51;;;;;;;10.53;2.57;;;;;;;;;;5054791;28;20823;-71
2023/08/19 14:03:18;;;;;;;7.65;2.50;;;;;;;;;;5048930;22;20932;-69
2023/08/19 14:05:43;;;;;;;11.75;3.38;;;;;;;;;;5027881;28;20455;-70
2023/08/19 14:08:08;;;;;;;7.43;2.33;;;;;;;;;;5030311;28;20104;-68
2023/08/19 14:10:34;;;;;;;8.13;2.53;;;;;;;;;;5030594;28;20748;-70
2023/08/19 14:12:59;;;;;;;5.13;2.43;;;;;;;;;;5030479;28;20037;-68
2023/08/19 14:15:25;;;;;;;5.80;2.60;;;;;;;;;;5028615;28;20732;-70
2023/08/19 14:17:52;;;;;;;8.88;2.47;;;;;;;;;;5028784;28;20080;-69
2023/08/19 14:20:18;;;;;;;9.13;2.10;;;;;;;;;;5029814;28;20009;-66
2023/08/19 14:22:43;;;;;;;8.93;2.60;;;;;;;;;;5012059;28;20017;-70